sensor_id;sensor_type;location;lat;lon;timestamp;pressure;altitude;pressure_sealevel;temperature;humidity
20368;BME280;10343;52.402;9.796;2023-04-24T00:01:43;99460.66;;;21.93;42.30
20368;BME280;10343;52.402;9.796;2023-04-24T00:04:11;99469.03;;;22.40;41.42
20368;BME280;10343;52.402;9.796;2023-04-24T00:06:43;99467.97;;;23.00;40.31
20368;BME280;10343;52.402;9.796;2023-04-24T00:09:11;99463.03;;;22.76;41.38
20368;BME280;10343;52.402;9.796;2023-04-24T00:11:39;99462.56;;;22.90;40.71
20368;BME280;10343;52.402;9.796;2023-04-24T00:14:07;99462.97;;;22.07;41.44
20368;BME280;10343;52.402;9.796;2023-04-24T00:16:34;99457.22;;;22.51;41.43
20368;BME280;10343;52.402;9.796;2023-04-24T00:19:04;99468.84;;;21.71;42.64
20368;BME280;10343;52.402;9.796;2023-04-24T00:21:32;99457.50;;;22.38;41.62
20368;BME280;10343;52.402;9.796;2023-04-24T00:24:00;99452.34;;;22.05;42.40
20368;BME280;10343;52.402;9.796;2023-04-24T00:26:28;99458.09;;;21.91;42.35
20368;BME280;10343;52.402;9.796;2023-04-24T00:28:56;99457.72;;;21.96;42.10
20368;BME280;10343;52.402;9.796;2023-04-24T00:31:25;99455.38;;;22.51;41.04
20368;BME280;10343;52.402;9.796;2023-04-24T00:33:53;99452.25;;;22.36;41.14
20368;BME280;10343;52.402;9.796;2023-04-24T00:36:23;99451.94;;;22.49;41.17
20368;BME280;10343;52.402;9.796;2023-04-24T00:38:51;99447.09;;;22.63;41.01
20368;BME280;10343;52.402;9.796;2023-04-24T00:41:19;99457.88;;;22.04;41.80
20368;BME280;10343;52.402;9.796;2023-04-24T00:43:47;99462.16;;;22.16;41.93
20368;BME280;10343;52.402;9.796;2023-04-24T00:46:16;99474.13;;;22.43;41.71
20368;BME280;10343;52.402;9.796;2023-04-24T00:48:44;99473.13;;;22.34;41.42
20368;BME280;10343;52.402;9.796;2023-04-24T00:51:12;99479.50;;;21.73;42.80
20368;BME280;10343;52.402;9.796;2023-04-24T00:53:41;99476.16;;;21.29;43.34
20368;BME280;10343;52.402;9.796;2023-04-24T00:56:10;99463.97;;;22.06;41.53
20368;BME280;10343;52.402;9.796;2023-04-24T00:58:38;99471.00;;;22.77;40.31
20368;BME280;10343;52.402;9.796;2023-04-24T01:01:06;99468.25;;;23.16;39.58
20368;BME280;10343;52.402;9.796;2023-04-24T01:03:35;99474.97;;;22.34;39.63
20368;BME280;10343;52.402;9.796;2023-04-24T01:06:05;99478.44;;;21.54;40.95
20368;BME280;10343;52.402;9.796;2023-04-24T01:08:34;99479.41;;;21.94;40.12
20368;BME280;10343;52.402;9.796;2023-04-24T01:11:05;99478.84;;;21.91;39.55
20368;BME280;10343;52.402;9.796;2023-04-24T01:13:34;99483.34;;;20.76;40.88
20368;BME280;10343;52.402;9.796;2023-04-24T01:16:02;99474.41;;;22.40;38.31
20368;BME280;10343;52.402;9.796;2023-04-24T01:18:30;99469.47;;;23.32;36.59
20368;BME280;10343;52.402;9.796;2023-04-24T01:20:59;99470.69;;;22.80;36.33
20368;BME280;10343;52.402;9.796;2023-04-24T01:23:32;99465.19;;;23.29;35.65
20368;BME280;10343;52.402;9.796;2023-04-24T01:26:01;99471.72;;;23.46;35.31
20368;BME280;10343;52.402;9.796;2023-04-24T01:28:30;99453.84;;;24.37;33.77
20368;BME280;10343;52.402;9.796;2023-04-24T01:30:58;99463.09;;;23.61;34.58
20368;BME280;10343;52.402;9.796;2023-04-24T01:33:27;99465.06;;;23.96;34.28
20368;BME280;10343;52.402;9.796;2023-04-24T01:35:55;99469.13;;;23.54;34.39
20368;BME280;10343;52.402;9.796;2023-04-24T01:38:24;99474.84;;;24.07;34.57
20368;BME280;10343;52.402;9.796;2023-04-24T01:40:53;99470.44;;;24.42;33.47
20368;BME280;10343;52.402;9.796;2023-04-24T01:43:21;99474.16;;;23.39;34.99
20368;BME280;10343;52.402;9.796;2023-04-24T01:45:49;99468.22;;;24.37;33.75
20368;BME280;10343;52.402;9.796;2023-04-24T01:48:17;99470.69;;;24.67;33.76
20368;BME280;10343;52.402;9.796;2023-04-24T01:50:45;99464.09;;;24.15;33.75
20368;BME280;10343;52.402;9.796;2023-04-24T01:53:14;99464.09;;;24.15;33.79
20368;BME280;10343;52.402;9.796;2023-04-24T01:55:42;99465.25;;;24.13;33.69
20368;BME280;10343;52.402;9.796;2023-04-24T01:58:13;99469.13;;;23.82;34.24
20368;BME280;10343;52.402;9.796;2023-04-24T02:00:42;99469.81;;;23.94;34.42
20368;BME280;10343;52.402;9.796;2023-04-24T02:03:09;99466.66;;;24.53;33.08
20368;BME280;10343;52.402;9.796;2023-04-24T02:05:38;99468.31;;;23.72;34.49
20368;BME280;10343;52.402;9.796;2023-04-24T02:08:05;99483.66;;;23.44;35.25
20368;BME280;10343;52.402;9.796;2023-04-24T02:10:36;99475.22;;;23.09;36.09
20368;BME280;10343;52.402;9.796;2023-04-24T02:13:04;99468.56;;;21.75;38.23
20368;BME280;10343;52.402;9.796;2023-04-24T02:15:34;99470.16;;;21.77;38.19
20368;BME280;10343;52.402;9.796;2023-04-24T02:18:02;99459.47;;;21.66;38.26
20368;BME280;10343;52.402;9.796;2023-04-24T02:20:31;99462.09;;;21.25;39.44
20368;BME280;10343;52.402;9.796;2023-04-24T02:23:00;99450.22;;;22.29;37.76
20368;BME280;10343;52.402;9.796;2023-04-24T02:25:28;99444.09;;;22.27;37.86
20368;BME280;10343;52.402;9.796;2023-04-24T02:27:56;99444.84;;;22.48;37.53
20368;BME280;10343;52.402;9.796;2023-04-24T02:30:25;99441.41;;;22.66;36.96
20368;BME280;10343;52.402;9.796;2023-04-24T02:32:54;99446.16;;;23.31;36.45
20368;BME280;10343;52.402;9.796;2023-04-24T02:35:23;99442.91;;;23.07;36.58
20368;BME280;10343;52.402;9.796;2023-04-24T02:37:51;99440.63;;;23.13;36.46
20368;BME280;10343;52.402;9.796;2023-04-24T02:40:19;99447.94;;;22.14;37.72
20368;BME280;10343;52.402;9.796;2023-04-24T02:42:47;99442.28;;;22.66;37.31
20368;BME280;10343;52.402;9.796;2023-04-24T02:45:16;99447.09;;;22.63;36.97
20368;BME280;10343;52.402;9.796;2023-04-24T02:47:44;99444.69;;;22.60;37.03
20368;BME280;10343;52.402;9.796;2023-04-24T02:50:14;99445.66;;;22.78;36.85
20368;BME280;10343;52.402;9.796;2023-04-24T02:52:41;99441.03;;;22.41;37.54
20368;BME280;10343;52.402;9.796;2023-04-24T02:55:10;99442.81;;;22.31;38.01
20368;BME280;10343;52.402;9.796;2023-04-24T02:57:38;99439.38;;;21.89;38.33
20368;BME280;10343;52.402;9.796;2023-04-24T03:00:07;99447.28;;;21.41;38.61
20368;BME280;10343;52.402;9.796;2023-04-24T03:02:35;99446.69;;;21.37;39.09
20368;BME280;10343;52.402;9.796;2023-04-24T03:05:04;99447.31;;;21.81;38.19
20368;BME280;10343;52.402;9.796;2023-04-24T03:07:34;99449.41;;;21.37;39.26
20368;BME280;10343;52.402;9.796;2023-04-24T03:10:02;99448.81;;;22.25;37.13
20368;BME280;10343;52.402;9.796;2023-04-24T03:12:30;99437.16;;;22.83;36.18
20368;BME280;10343;52.402;9.796;2023-04-24T03:14:58;99443.44;;;22.44;36.32
20368;BME280;10343;52.402;9.796;2023-04-24T03:17:26;99438.66;;;21.87;37.40
20368;BME280;10343;52.402;9.796;2023-04-24T03:19:54;99443.13;;;22.77;36.08
20368;BME280;10343;52.402;9.796;2023-04-24T03:22:22;99448.38;;;21.28;38.42
20368;BME280;10343;52.402;9.796;2023-04-24T03:24:51;99438.84;;;22.05;36.64
20368;BME280;10343;52.402;9.796;2023-04-24T03:27:19;99441.41;;;22.07;36.57
20368;BME280;10343;52.402;9.796;2023-04-24T03:29:54;99446.22;;;22.13;36.44
20368;BME280;10343;52.402;9.796;2023-04-24T03:32:45;99437.72;;;22.28;36.18
20368;BME280;10343;52.402;9.796;2023-04-24T03:35:17;99442.50;;;21.85;36.70
20368;BME280;10343;52.402;9.796;2023-04-24T03:37:46;99435.84;;;21.99;36.41
20368;BME280;10343;52.402;9.796;2023-04-24T03:40:44;99445.00;;;22.37;36.04
20368;BME280;10343;52.402;9.796;2023-04-24T03:43:35;99433.47;;;22.45;36.14
20368;BME280;10343;52.402;9.796;2023-04-24T03:46:05;99439.47;;;22.48;36.03
20368;BME280;10343;52.402;9.796;2023-04-24T03:48:37;99435.16;;;22.16;36.56
20368;BME280;10343;52.402;9.796;2023-04-24T03:51:07;99428.78;;;21.57;37.45
20368;BME280;10343;52.402;9.796;2023-04-24T03:53:38;99426.63;;;22.11;36.65
20368;BME280;10343;52.402;9.796;2023-04-24T03:56:08;99422.44;;;21.37;38.05
20368;BME280;10343;52.402;9.796;2023-04-24T03:58:36;99423.44;;;21.67;37.89
20368;BME280;10343;52.402;9.796;2023-04-24T04:01:04;99426.03;;;21.98;37.00
20368;BME280;10343;52.402;9.796;2023-04-24T04:03:48;99422.25;;;21.60;37.91
20368;BME280;10343;52.402;9.796;2023-04-24T04:06:19;99424.94;;;21.60;38.05
20368;BME280;10343;52.402;9.796;2023-04-24T04:08:49;99420.50;;;21.99;37.42
20368;BME280;10343;52.402;9.796;2023-04-24T04:11:18;99421.19;;;21.41;38.46
20368;BME280;10343;52.402;9.796;2023-04-24T04:13:46;99422.72;;;21.75;37.99
20368;BME280;10343;52.402;9.796;2023-04-24T04:16:17;99424.56;;;21.74;38.18
20368;BME280;10343;52.402;9.796;2023-04-24T04:18:48;99436.16;;;21.03;39.29
20368;BME280;10343;52.402;9.796;2023-04-24T04:21:16;99435.09;;;20.84;39.40
20368;BME280;10343;52.402;9.796;2023-04-24T04:23:44;99428.91;;;21.25;38.79
20368;BME280;10343;52.402;9.796;2023-04-24T04:26:18;99423.84;;;21.72;38.38
20368;BME280;10343;52.402;9.796;2023-04-24T04:29:01;99420.19;;;21.42;38.47
20368;BME280;10343;52.402;9.796;2023-04-24T04:31:31;99413.00;;;22.13;37.39
20368;BME280;10343;52.402;9.796;2023-04-24T04:34:04;99411.28;;;22.31;37.11
20368;BME280;10343;52.402;9.796;2023-04-24T04:36:33;99419.63;;;21.79;38.16
20368;BME280;10343;52.402;9.796;2023-04-24T04:39:19;99415.84;;;22.21;37.15
20368;BME280;10343;52.402;9.796;2023-04-24T04:41:57;99418.53;;;22.01;37.38
20368;BME280;10343;52.402;9.796;2023-04-24T04:44:33;99416.19;;;21.67;38.08
20368;BME280;10343;52.402;9.796;2023-04-24T04:47:04;99424.56;;;21.43;38.63
20368;BME280;10343;52.402;9.796;2023-04-24T04:49:35;99420.38;;;22.79;36.51
20368;BME280;10343;52.402;9.796;2023-04-24T04:52:05;99427.47;;;22.21;37.28
20368;BME280;10343;52.402;9.796;2023-04-24T04:54:33;99424.38;;;21.56;38.45
20368;BME280;10343;52.402;9.796;2023-04-24T04:57:03;99426.22;;;22.35;37.21
20368;BME280;10343;52.402;9.796;2023-04-24T04:59:34;99423.91;;;22.70;36.60
20368;BME280;10343;52.402;9.796;2023-04-24T05:02:09;99425.16;;;23.05;36.23
20368;BME280;10343;52.402;9.796;2023-04-24T05:04:37;99428.59;;;22.87;36.41
20368;BME280;10343;52.402;9.796;2023-04-24T05:07:06;99431.50;;;22.56;36.66
20368;BME280;10343;52.402;9.796;2023-04-24T05:09:38;99425.81;;;22.40;37.17
20368;BME280;10343;52.402;9.796;2023-04-24T05:12:08;99430.41;;;21.48;38.91
20368;BME280;10343;52.402;9.796;2023-04-24T05:14:43;99437.28;;;22.03;38.18
20368;BME280;10343;52.402;9.796;2023-04-24T05:17:12;99434.03;;;22.68;37.03
20368;BME280;10343;52.402;9.796;2023-04-24T05:19:40;99431.47;;;23.33;35.96
20368;BME280;10343;52.402;9.796;2023-04-24T05:22:08;99427.75;;;22.18;37.74
20368;BME280;10343;52.402;9.796;2023-04-24T05:24:46;99434.59;;;22.62;36.92
20368;BME280;10343;52.402;9.796;2023-04-24T05:27:41;99431.13;;;22.01;37.76
20368;BME280;10343;52.402;9.796;2023-04-24T05:30:14;99438.19;;;23.19;36.39
20368;BME280;10343;52.402;9.796;2023-04-24T05:32:43;99443.78;;;22.00;38.13
20368;BME280;10343;52.402;9.796;2023-04-24T05:35:12;99446.84;;;22.76;36.74
20368;BME280;10343;52.402;9.796;2023-04-24T05:37:41;99449.38;;;23.72;35.42
20368;BME280;10343;52.402;9.796;2023-04-24T05:40:11;99452.75;;;22.99;36.11
20368;BME280;10343;52.402;9.796;2023-04-24T05:42:40;99465.03;;;22.44;37.24
20368;BME280;10343;52.402;9.796;2023-04-24T05:45:09;99461.00;;;23.54;35.58
20368;BME280;10343;52.402;9.796;2023-04-24T05:47:43;99459.31;;;22.77;36.34
20368;BME280;10343;52.402;9.796;2023-04-24T05:50:12;99465.13;;;22.92;36.15
20368;BME280;10343;52.402;9.796;2023-04-24T05:52:40;99461.00;;;22.19;37.38
20368;BME280;10343;52.402;9.796;2023-04-24T05:55:21;99457.47;;;23.44;35.81
20368;BME280;10343;52.402;9.796;2023-04-24T05:57:49;99453.03;;;23.81;35.31
20368;BME280;10343;52.402;9.796;2023-04-24T06:00:19;99451.97;;;22.69;36.69
20368;BME280;10343;52.402;9.796;2023-04-24T06:02:57;99456.75;;;22.85;36.24
20368;BME280;10343;52.402;9.796;2023-04-24T06:05:27;99463.53;;;23.08;35.25
20368;BME280;10343;52.402;9.796;2023-04-24T06:07:55;99454.63;;;22.88;35.80
20368;BME280;10343;52.402;9.796;2023-04-24T06:10:26;99454.50;;;21.40;36.97
20368;BME280;10343;52.402;9.796;2023-04-24T06:12:55;99456.88;;;21.54;37.21
20368;BME280;10343;52.402;9.796;2023-04-24T06:15:30;99474.44;;;21.28;36.61
20368;BME280;10343;52.402;9.796;2023-04-24T06:18:04;99467.31;;;22.49;34.49
20368;BME280;10343;52.402;9.796;2023-04-24T06:20:33;99477.41;;;21.25;35.33
20368;BME280;10343;52.402;9.796;2023-04-24T06:23:03;99483.75;;;20.60;36.02
20368;BME280;10343;52.402;9.796;2023-04-24T06:25:35;99475.47;;;20.84;35.82
20368;BME280;10343;52.402;9.796;2023-04-24T06:28:03;99465.97;;;21.63;34.98
20368;BME280;10343;52.402;9.796;2023-04-24T06:30:32;99461.63;;;21.41;35.31
20368;BME280;10343;52.402;9.796;2023-04-24T06:33:00;99478.84;;;21.29;35.32
20368;BME280;10343;52.402;9.796;2023-04-24T06:35:45;99475.09;;;21.72;34.85
20368;BME280;10343;52.402;9.796;2023-04-24T06:38:13;99479.84;;;21.89;34.66
20368;BME280;10343;52.402;9.796;2023-04-24T06:40:42;99480.38;;;22.34;34.03
20368;BME280;10343;52.402;9.796;2023-04-24T06:43:10;99479.78;;;22.79;33.42
20368;BME280;10343;52.402;9.796;2023-04-24T06:45:40;99481.16;;;22.15;34.43
20368;BME280;10343;52.402;9.796;2023-04-24T06:48:09;99477.16;;;22.09;34.97
20368;BME280;10343;52.402;9.796;2023-04-24T06:50:38;99482.34;;;21.71;34.83
20368;BME280;10343;52.402;9.796;2023-04-24T06:53:05;99478.50;;;22.25;34.46
20368;BME280;10343;52.402;9.796;2023-04-24T06:55:33;99492.28;;;21.71;34.61
20368;BME280;10343;52.402;9.796;2023-04-24T06:58:03;99487.31;;;21.76;34.64
20368;BME280;10343;52.402;9.796;2023-04-24T07:00:31;99484.38;;;22.69;33.47
20368;BME280;10343;52.402;9.796;2023-04-24T07:03:00;99487.50;;;22.84;32.68
20368;BME280;10343;52.402;9.796;2023-04-24T07:05:29;99492.03;;;22.34;33.90
20368;BME280;10343;52.402;9.796;2023-04-24T07:07:57;99490.72;;;22.97;33.35
20368;BME280;10343;52.402;9.796;2023-04-24T07:10:26;99488.72;;;23.56;32.87
20368;BME280;10343;52.402;9.796;2023-04-24T07:12:55;99489.34;;;22.73;33.76
20368;BME280;10343;52.402;9.796;2023-04-24T07:15:23;99489.56;;;22.21;34.59
20368;BME280;10343;52.402;9.796;2023-04-24T07:17:51;99482.19;;;22.23;33.72
20368;BME280;10343;52.402;9.796;2023-04-24T07:20:21;99484.81;;;21.94;34.75
20368;BME280;10343;52.402;9.796;2023-04-24T07:22:49;99490.03;;;22.46;33.88
20368;BME280;10343;52.402;9.796;2023-04-24T07:25:18;99485.47;;;22.86;33.05
20368;BME280;10343;52.402;9.796;2023-04-24T07:27:46;99491.72;;;22.86;32.83
20368;BME280;10343;52.402;9.796;2023-04-24T07:30:15;99486.59;;;23.03;32.48
20368;BME280;10343;52.402;9.796;2023-04-24T07:32:43;99495.44;;;22.46;32.08
20368;BME280;10343;52.402;9.796;2023-04-24T07:35:11;99503.00;;;22.02;32.99
20368;BME280;10343;52.402;9.796;2023-04-24T07:37:40;99520.00;;;21.31;33.73
20368;BME280;10343;52.402;9.796;2023-04-24T07:40:12;99529.53;;;21.97;32.63
20368;BME280;10343;52.402;9.796;2023-04-24T07:42:40;99532.03;;;22.10;32.44
20368;BME280;10343;52.402;9.796;2023-04-24T07:45:08;99522.03;;;22.00;32.54
20368;BME280;10343;52.402;9.796;2023-04-24T07:47:36;99521.59;;;22.95;31.32
20368;BME280;10343;52.402;9.796;2023-04-24T07:50:06;99520.81;;;23.51;30.47
20368;BME280;10343;52.402;9.796;2023-04-24T07:52:34;99526.59;;;24.04;29.75
20368;BME280;10343;52.402;9.796;2023-04-24T07:55:04;99521.84;;;22.33;32.14
20368;BME280;10343;52.402;9.796;2023-04-24T07:57:32;99515.28;;;23.33;30.92
20368;BME280;10343;52.402;9.796;2023-04-24T08:00:02;99518.47;;;22.70;32.45
20368;BME280;10343;52.402;9.796;2023-04-24T08:02:37;99526.41;;;23.30;31.65
20368;BME280;10343;52.402;9.796;2023-04-24T08:05:05;99515.84;;;24.12;30.60
20368;BME280;10343;52.402;9.796;2023-04-24T08:07:34;99527.25;;;23.11;31.42
20368;BME280;10343;52.402;9.796;2023-04-24T08:10:05;99534.09;;;23.15;32.05
20368;BME280;10343;52.402;9.796;2023-04-24T08:12:33;99542.16;;;23.54;31.60
20368;BME280;10343;52.402;9.796;2023-04-24T08:15:01;99534.03;;;23.54;31.55
20368;BME280;10343;52.402;9.796;2023-04-24T08:17:29;99541.50;;;22.74;32.29
20368;BME280;10343;52.402;9.796;2023-04-24T08:19:57;99540.66;;;22.44;32.96
20368;BME280;10343;52.402;9.796;2023-04-24T08:22:28;99541.22;;;23.16;31.80
20368;BME280;10343;52.402;9.796;2023-04-24T08:24:56;99542.69;;;22.21;33.05
20368;BME280;10343;52.402;9.796;2023-04-24T08:27:27;99552.88;;;22.97;32.20
20368;BME280;10343;52.402;9.796;2023-04-24T08:29:57;99556.00;;;23.32;31.75
20368;BME280;10343;52.402;9.796;2023-04-24T08:32:25;99555.41;;;23.08;31.86
20368;BME280;10343;52.402;9.796;2023-04-24T08:34:54;99566.69;;;22.14;32.55
20368;BME280;10343;52.402;9.796;2023-04-24T08:37:22;99561.56;;;23.01;31.28
20368;BME280;10343;52.402;9.796;2023-04-24T08:39:50;99563.94;;;22.04;32.75
20368;BME280;10343;52.402;9.796;2023-04-24T08:42:19;99567.69;;;23.13;31.75
20368;BME280;10343;52.402;9.796;2023-04-24T08:44:49;99567.34;;;24.30;29.70
20368;BME280;10343;52.402;9.796;2023-04-24T08:47:20;99549.16;;;23.28;30.03
20368;BME280;10343;52.402;9.796;2023-04-24T08:49:49;99577.06;;;23.38;30.67
20368;BME280;10343;52.402;9.796;2023-04-24T08:52:18;99567.06;;;22.50;31.49
20368;BME280;10343;52.402;9.796;2023-04-24T08:54:47;99561.56;;;22.11;32.10
20368;BME280;10343;52.402;9.796;2023-04-24T08:57:16;99556.31;;;22.80;30.67
20368;BME280;10343;52.402;9.796;2023-04-24T08:59:44;99571.94;;;21.75;31.90
20368;BME280;10343;52.402;9.796;2023-04-24T09:02:14;99573.34;;;22.61;30.79
20368;BME280;10343;52.402;9.796;2023-04-24T09:04:44;99569.13;;;23.27;29.61
20368;BME280;10343;52.402;9.796;2023-04-24T09:07:15;99559.13;;;22.59;30.94
20368;BME280;10343;52.402;9.796;2023-04-24T09:09:44;99550.13;;;23.94;29.34
20368;BME280;10343;52.402;9.796;2023-04-24T09:12:12;99552.88;;;23.07;29.51
20368;BME280;10343;52.402;9.796;2023-04-24T09:14:41;99554.19;;;24.35;28.22
20368;BME280;10343;52.402;9.796;2023-04-24T09:17:12;99558.09;;;23.48;29.13
20368;BME280;10343;52.402;9.796;2023-04-24T09:19:41;99570.03;;;21.97;30.86
20368;BME280;10343;52.402;9.796;2023-04-24T09:22:09;99573.91;;;22.74;30.28
20368;BME280;10343;52.402;9.796;2023-04-24T09:24:38;99570.94;;;22.97;30.02
20368;BME280;10343;52.402;9.796;2023-04-24T09:27:06;99572.41;;;22.31;30.85
20368;BME280;10343;52.402;9.796;2023-04-24T09:29:36;99563.09;;;22.74;30.35
20368;BME280;10343;52.402;9.796;2023-04-24T09:32:18;99587.53;;;22.43;31.01
20368;BME280;10343;52.402;9.796;2023-04-24T09:34:48;99576.97;;;21.89;31.86
20368;BME280;10343;52.402;9.796;2023-04-24T09:37:28;99583.50;;;22.28;31.14
20368;BME280;10343;52.402;9.796;2023-04-24T09:40:10;99584.34;;;22.28;31.50
20368;BME280;10343;52.402;9.796;2023-04-24T09:42:39;99574.78;;;23.23;30.10
20368;BME280;10343;52.402;9.796;2023-04-24T09:45:10;99574.16;;;23.59;30.08
20368;BME280;10343;52.402;9.796;2023-04-24T09:47:43;99581.47;;;23.39;30.00
20368;BME280;10343;52.402;9.796;2023-04-24T09:50:14;99578.78;;;22.90;31.21
20368;BME280;10343;52.402;9.796;2023-04-24T09:52:47;99580.78;;;23.27;30.22
20368;BME280;10343;52.402;9.796;2023-04-24T09:55:24;99588.00;;;22.58;31.43
20368;BME280;10343;52.402;9.796;2023-04-24T09:57:53;99585.41;;;24.02;29.37
20368;BME280;10343;52.402;9.796;2023-04-24T10:00:26;99578.44;;;24.55;28.83
20368;BME280;10343;52.402;9.796;2023-04-24T10:02:57;99586.41;;;23.53;29.94
20368;BME280;10343;52.402;9.796;2023-04-24T10:05:32;99589.28;;;21.40;32.49
20368;BME280;10343;52.402;9.796;2023-04-24T10:08:02;99591.09;;;21.82;32.52
20368;BME280;10343;52.402;9.796;2023-04-24T10:10:30;99584.16;;;22.51;31.80
20368;BME280;10343;52.402;9.796;2023-04-24T10:12:59;99585.00;;;23.49;30.43
20368;BME280;10343;52.402;9.796;2023-04-24T10:15:27;99577.56;;;23.61;30.54
20368;BME280;10343;52.402;9.796;2023-04-24T10:17:57;99571.06;;;23.34;30.39
20368;BME280;10343;52.402;9.796;2023-04-24T10:20:28;99573.50;;;22.69;31.35
20368;BME280;10343;52.402;9.796;2023-04-24T10:23:00;99576.19;;;23.08;31.07
20368;BME280;10343;52.402;9.796;2023-04-24T10:25:29;99575.38;;;22.98;31.10
20368;BME280;10343;52.402;9.796;2023-04-24T10:27:59;99577.47;;;22.65;31.54
20368;BME280;10343;52.402;9.796;2023-04-24T10:30:28;99570.06;;;23.92;29.73
20368;BME280;10343;52.402;9.796;2023-04-24T10:32:56;99570.00;;;24.12;29.83
20368;BME280;10343;52.402;9.796;2023-04-24T10:35:24;99577.47;;;22.14;32.08
20368;BME280;10343;52.402;9.796;2023-04-24T10:37:57;99589.56;;;20.83;34.62
20368;BME280;10343;52.402;9.796;2023-04-24T10:40:31;99581.91;;;23.24;31.50
20368;BME280;10343;52.402;9.796;2023-04-24T10:43:02;99581.31;;;22.82;31.98
20368;BME280;10343;52.402;9.796;2023-04-24T10:45:32;99581.34;;;23.21;31.49
20368;BME280;10343;52.402;9.796;2023-04-24T10:48:02;99590.13;;;22.74;32.51
20368;BME280;10343;52.402;9.796;2023-04-24T10:50:43;99590.19;;;23.13;31.92
20368;BME280;10343;52.402;9.796;2023-04-24T10:53:16;99593.22;;;22.40;32.68
20368;BME280;10343;52.402;9.796;2023-04-24T10:55:48;99588.84;;;22.59;32.32
20368;BME280;10343;52.402;9.796;2023-04-24T10:58:16;99582.97;;;22.03;32.52
20368;BME280;10343;52.402;9.796;2023-04-24T11:00:56;99583.78;;;21.94;32.96
20368;BME280;10343;52.402;9.796;2023-04-24T11:03:26;99578.75;;;22.61;31.96
20368;BME280;10343;52.402;9.796;2023-04-24T11:05:57;99581.84;;;23.64;30.62
20368;BME280;10343;52.402;9.796;2023-04-24T11:08:29;99590.25;;;24.08;29.81
20368;BME280;10343;52.402;9.796;2023-04-24T11:11:00;99595.00;;;23.96;30.31
20368;BME280;10343;52.402;9.796;2023-04-24T11:14:04;99598.66;;;22.99;31.11
20368;BME280;10343;52.402;9.796;2023-04-24T11:16:43;99593.78;;;22.44;31.93
20368;BME280;10343;52.402;9.796;2023-04-24T11:19:22;99589.28;;;22.83;31.60
20368;BME280;10343;52.402;9.796;2023-04-24T11:21:58;99602.50;;;22.67;31.96
20368;BME280;10343;52.402;9.796;2023-04-24T11:24:31;99599.75;;;22.47;32.35
20368;BME280;10343;52.402;9.796;2023-04-24T11:27:06;99594.38;;;22.67;31.64
20368;BME280;10343;52.402;9.796;2023-04-24T11:29:39;99597.75;;;22.49;31.62
20368;BME280;10343;52.402;9.796;2023-04-24T11:32:27;99589.28;;;22.23;31.66
20368;BME280;10343;52.402;9.796;2023-04-24T11:34:56;99594.97;;;22.70;31.23
20368;BME280;10343;52.402;9.796;2023-04-24T11:37:27;99587.00;;;23.47;30.23
20368;BME280;10343;52.402;9.796;2023-04-24T11:39:56;99585.81;;;24.63;28.79
20368;BME280;10343;52.402;9.796;2023-04-24T11:42:27;99583.41;;;25.14;28.43
20368;BME280;10343;52.402;9.796;2023-04-24T11:44:56;99597.72;;;23.86;29.59
20368;BME280;10343;52.402;9.796;2023-04-24T11:47:28;99597.00;;;21.97;32.02
20368;BME280;10343;52.402;9.796;2023-04-24T11:49:58;99599.56;;;21.98;31.84
20368;BME280;10343;52.402;9.796;2023-04-24T11:52:28;99592.88;;;23.13;30.65
20368;BME280;10343;52.402;9.796;2023-04-24T11:54:56;99600.38;;;22.80;31.18
20368;BME280;10343;52.402;9.796;2023-04-24T11:57:26;99595.78;;;22.42;31.79
20368;BME280;10343;52.402;9.796;2023-04-24T12:00:00;99597.25;;;22.75;31.49
20368;BME280;10343;52.402;9.796;2023-04-24T12:02:37;99594.81;;;23.50;30.43
20368;BME280;10343;52.402;9.796;2023-04-24T12:05:09;99590.50;;;23.67;30.15
20368;BME280;10343;52.402;9.796;2023-04-24T12:07:40;99603.16;;;22.39;31.50
20368;BME280;10343;52.402;9.796;2023-04-24T12:10:10;99591.34;;;22.41;31.46
20368;BME280;10343;52.402;9.796;2023-04-24T12:12:39;99599.38;;;23.11;30.71
20368;BME280;10343;52.402;9.796;2023-04-24T12:15:08;99604.56;;;22.03;31.83
20368;BME280;10343;52.402;9.796;2023-04-24T12:17:41;99614.78;;;21.68;32.40
20368;BME280;10343;52.402;9.796;2023-04-24T12:20:10;99620.81;;;21.40;33.31
20368;BME280;10343;52.402;9.796;2023-04-24T12:22:46;99621.00;;;22.31;32.07
20368;BME280;10343;52.402;9.796;2023-04-24T12:25:17;99622.63;;;22.43;31.92
20368;BME280;10343;52.402;9.796;2023-04-24T12:27:52;99634.72;;;22.08;32.33
20368;BME280;10343;52.402;9.796;2023-04-24T12:30:25;99620.69;;;22.55;31.90
20368;BME280;10343;52.402;9.796;2023-04-24T12:32:57;99619.28;;;22.61;31.80
20368;BME280;10343;52.402;9.796;2023-04-24T12:35:27;99622.28;;;22.67;31.58
20368;BME280;10343;52.402;9.796;2023-04-24T12:37:55;99624.69;;;22.30;32.54
20368;BME280;10343;52.402;9.796;2023-04-24T12:40:25;99622.53;;;23.72;30.76
20368;BME280;10343;52.402;9.796;2023-04-24T12:42:54;99631.97;;;23.48;30.74
20368;BME280;10343;52.402;9.796;2023-04-24T12:45:23;99644.22;;;23.43;30.83
20368;BME280;10343;52.402;9.796;2023-04-24T12:47:52;99645.09;;;24.38;29.66
20368;BME280;10343;52.402;9.796;2023-04-24T12:50:19;99652.56;;;22.90;31.61
20368;BME280;10343;52.402;9.796;2023-04-24T12:52:47;99639.34;;;23.07;31.13
20368;BME280;10343;52.402;9.796;2023-04-24T12:55:15;99655.69;;;22.86;31.99
20368;BME280;10343;52.402;9.796;2023-04-24T12:57:43;99657.34;;;23.47;31.14
20368;BME280;10343;52.402;9.796;2023-04-24T13:00:13;99666.78;;;22.73;32.17
20368;BME280;10343;52.402;9.796;2023-04-24T13:02:45;99678.97;;;21.96;33.20
20368;BME280;10343;52.402;9.796;2023-04-24T13:05:13;99673.16;;;21.58;34.25
20368;BME280;10343;52.402;9.796;2023-04-24T13:07:42;99679.75;;;21.33;35.07
20368;BME280;10343;52.402;9.796;2023-04-24T13:10:10;99700.72;;;20.97;35.95
20368;BME280;10343;52.402;9.796;2023-04-24T13:12:40;99697.88;;;21.42;35.27
20368;BME280;10343;52.402;9.796;2023-04-24T13:15:08;99714.22;;;20.40;37.62
20368;BME280;10343;52.402;9.796;2023-04-24T13:17:38;99716.06;;;19.70;39.25